createdAt,value
2023-05-10T00:04:28.856Z,8.52
2023-05-10T00:09:33.203Z,8.43
2023-05-10T00:14:37.394Z,8.33
2023-05-10T00:19:41.833Z,8.43
2023-05-10T00:24:45.514Z,8.45
2023-05-10T00:29:49.845Z,8.45
2023-05-10T00:34:54.228Z,8.43
2023-05-10T00:39:58.584Z,8.27
2023-05-10T00:45:03.279Z,8.29
2023-05-10T00:50:10.219Z,8.31
2023-05-10T00:55:14.238Z,8.24
2023-05-10T01:00:20.285Z,8.21
2023-05-10T01:05:24.932Z,8.10
2023-05-10T01:10:28.905Z,8.10
2023-05-10T01:15:33.381Z,8.11
2023-05-10T01:20:44.734Z,8.16
2023-05-10T01:26:06.754Z,8.16
2023-05-10T01:31:31.947Z,8.18
2023-05-10T01:36:50.218Z,8.22
2023-05-10T01:42:04.803Z,8.22
2023-05-10T01:47:17.034Z,8.25
2023-05-10T01:52:28.622Z,8.22
2023-05-10T01:57:38.887Z,8.32
2023-05-10T02:02:51.502Z,8.36
2023-05-10T02:07:56.789Z,8.49
2023-05-10T02:13:02.773Z,8.59
2023-05-10T02:18:07.496Z,8.78
2023-05-10T02:23:13.008Z,8.86
2023-05-10T02:28:19.078Z,8.92
2023-05-10T02:33:24.057Z,8.93
2023-05-10T02:38:31.905Z,8.93
2023-05-10T02:43:37.672Z,9.00
2023-05-10T02:48:41.448Z,9.11
2023-05-10T02:53:48.076Z,9.17
2023-05-10T02:58:52.548Z,9.17
2023-05-10T03:03:56.762Z,9.03
2023-05-10T03:09:00.963Z,8.90
2023-05-10T03:14:18.958Z,8.77
2023-05-10T03:19:26.308Z,8.61
2023-05-10T03:24:32.499Z,8.42
2023-05-10T03:29:40.047Z,8.22
2023-05-10T03:34:44.948Z,8.08
2023-05-10T03:39:49.303Z,8.02
2023-05-10T03:44:53.326Z,7.80
2023-05-10T03:49:57.700Z,7.81
2023-05-10T03:55:04.386Z,7.58
2023-05-10T04:00:09.708Z,7.80
2023-05-10T04:05:19.288Z,7.88
2023-05-10T04:10:24.342Z,8.07
2023-05-10T04:15:28.150Z,8.20
2023-05-10T04:20:34.303Z,8.41
2023-05-10T04:25:38.341Z,8.64
2023-05-10T04:30:42.748Z,8.83
2023-05-10T04:35:47.062Z,9.06
2023-05-10T04:40:51.240Z,9.30
2023-05-10T04:45:58.785Z,9.59
2023-05-10T04:51:04.849Z,9.86
2023-05-10T04:56:09.374Z,10.25
2023-05-10T05:01:13.626Z,10.57
2023-05-10T05:06:18.302Z,10.87
2023-05-10T05:11:22.553Z,11.25
2023-05-10T05:16:27.491Z,11.62
2023-05-10T05:21:33.470Z,11.97
2023-05-10T05:26:38.217Z,12.23
2023-05-10T05:31:41.968Z,12.47
2023-05-10T05:36:45.266Z,12.72
2023-05-10T05:41:49.469Z,12.91
2023-05-10T05:46:53.488Z,13.03
2023-05-10T05:52:05.136Z,13.25
2023-05-10T05:57:08.933Z,13.66
2023-05-10T06:02:12.944Z,13.95
2023-05-10T06:07:16.360Z,14.12
2023-05-10T06:12:22.852Z,14.36
2023-05-10T06:17:26.570Z,14.39
2023-05-10T06:22:29.986Z,14.43
2023-05-10T06:27:33.608Z,14.40
2023-05-10T06:32:38.079Z,14.47
2023-05-10T06:37:42.417Z,14.55
2023-05-10T06:42:47.328Z,14.58
2023-05-10T06:47:51.560Z,14.81
2023-05-10T06:52:54.819Z,14.93
2023-05-10T06:57:59.226Z,15.02
2023-05-10T07:03:03.051Z,15.25
2023-05-10T07:08:07.502Z,15.34
2023-05-10T07:13:11.901Z,15.52
2023-05-10T07:18:15.744Z,15.99
2023-05-10T07:23:19.237Z,16.24
2023-05-10T07:28:24.315Z,17.17
2023-05-10T07:33:27.770Z,17.29
2023-05-10T07:38:31.886Z,16.84
2023-05-10T07:43:35.935Z,16.49
2023-05-10T07:48:39.580Z,15.87
2023-05-10T07:53:43.788Z,15.60
2023-05-10T07:58:47.757Z,15.91
2023-05-10T08:03:52.771Z,16.03
2023-05-10T08:08:57.915Z,16.18
2023-05-10T08:14:01.289Z,16.39
2023-05-10T08:19:06.385Z,16.37
2023-05-10T08:24:10.465Z,17.00
2023-05-10T08:29:14.595Z,17.93
2023-05-10T08:34:18.787Z,18.32
2023-05-10T08:39:29.862Z,18.85
2023-05-10T08:44:37.937Z,18.55
2023-05-10T08:49:42.164Z,18.29
2023-05-10T08:54:45.957Z,18.29
2023-05-10T08:59:49.443Z,17.84
2023-05-10T09:04:53.786Z,17.86
2023-05-10T09:09:58.890Z,17.67
2023-05-10T09:15:03.813Z,17.42
2023-05-10T09:20:09.015Z,17.19
2023-05-10T09:25:17.547Z,16.54
2023-05-10T09:30:32.491Z,15.42
2023-05-10T09:35:35.952Z,15.15
2023-05-10T09:40:39.345Z,14.47
2023-05-10T09:45:42.952Z,14.42
2023-05-10T09:50:46.812Z,14.46
2023-05-10T09:55:51.824Z,14.80
2023-05-10T10:00:56.220Z,14.95
2023-05-10T10:06:00.400Z,15.80
2023-05-10T10:11:04.490Z,16.62
2023-05-10T10:16:11.126Z,16.60
2023-05-10T10:21:15.477Z,16.94
2023-05-10T10:26:21.118Z,16.32
2023-05-10T10:31:33.932Z,16.37
2023-05-10T10:36:48.392Z,16.64
2023-05-10T10:41:53.554Z,16.58
2023-05-10T10:47:06.793Z,16.35
2023-05-10T10:52:32.527Z,15.94
2023-05-10T10:57:43.299Z,15.83
2023-05-10T11:02:52.964Z,15.96
2023-05-10T11:07:59.058Z,16.40
2023-05-10T11:13:05.620Z,16.72
2023-05-10T11:18:21.914Z,17.03
2023-05-10T11:23:25.505Z,16.97
2023-05-10T11:28:29.730Z,17.09
2023-05-10T11:33:52.024Z,17.44
2023-05-10T11:38:57.084Z,18.40
2023-05-10T11:44:03.539Z,18.66
2023-05-10T11:49:09.520Z,18.83
2023-05-10T11:54:13.349Z,19.33
2023-05-10T11:59:16.815Z,19.29
2023-05-10T12:04:21.502Z,18.83
2023-05-10T12:14:37.055Z,18.99
2023-05-10T12:19:41.048Z,18.65
2023-05-10T12:24:47.495Z,19.24
2023-05-10T12:29:51.376Z,19.27
2023-05-10T12:34:55.418Z,18.85
2023-05-10T12:39:58.655Z,17.99
2023-05-10T12:45:02.086Z,17.57
2023-05-10T12:50:06.545Z,16.73
2023-05-10T12:55:10.515Z,16.62
2023-05-10T13:00:15.345Z,16.31
2023-05-10T13:05:19.210Z,16.10
2023-05-10T13:10:23.900Z,15.57
2023-05-10T13:15:28.327Z,15.39
2023-05-10T13:20:31.672Z,15.41
2023-05-10T13:25:35.687Z,15.11
2023-05-10T13:30:39.689Z,14.92
2023-05-10T13:35:43.744Z,14.73
2023-05-10T13:40:47.500Z,14.45
2023-05-10T13:45:51.180Z,14.16
2023-05-10T13:50:54.596Z,13.84
2023-05-10T13:55:58.466Z,13.61
2023-05-10T14:01:02.077Z,13.57
2023-05-10T14:06:06.755Z,13.46
2023-05-10T14:11:13.685Z,13.33
2023-05-10T14:16:17.360Z,13.17
2023-05-10T14:21:21.593Z,13.02
2023-05-10T14:26:25.650Z,12.94
2023-05-10T14:31:31.692Z,13.03
2023-05-10T14:36:34.984Z,13.06
2023-05-10T14:41:40.522Z,13.04
2023-05-10T14:46:44.098Z,13.22
2023-05-10T14:51:48.470Z,13.16
2023-05-10T14:56:51.741Z,13.34
2023-05-10T15:01:55.528Z,13.45
2023-05-10T15:07:00.877Z,13.20
2023-05-10T15:12:04.205Z,13.29
2023-05-10T15:17:08.958Z,13.29
2023-05-10T15:22:12.903Z,13.18
2023-05-10T15:27:17.134Z,13.18
2023-05-10T15:32:21.354Z,13.18
2023-05-10T15:37:25.723Z,13.12
2023-05-10T15:42:29.674Z,12.98
2023-05-10T15:47:34.304Z,12.85
2023-05-10T15:52:38.450Z,12.78
2023-05-10T15:57:44.411Z,12.72
2023-05-10T16:02:47.811Z,12.66
2023-05-10T16:07:51.991Z,12.65
2023-05-10T16:12:55.944Z,12.54
2023-05-10T16:18:00.039Z,12.48
2023-05-10T16:23:06.570Z,12.40
2023-05-10T16:28:09.905Z,12.34
2023-05-10T16:33:14.514Z,12.31
2023-05-10T16:38:17.974Z,12.09
2023-05-10T16:43:24.082Z,12.04
2023-05-10T16:48:29.217Z,11.95
2023-05-10T16:53:32.993Z,11.97
2023-05-10T16:58:37.466Z,11.98
2023-05-10T17:03:42.021Z,11.85
2023-05-10T17:08:48.818Z,11.97
2023-05-10T17:13:53.728Z,11.97
2023-05-10T17:18:59.338Z,12.00
2023-05-10T17:24:03.576Z,11.98
2023-05-10T17:29:07.875Z,11.90
2023-05-10T17:34:11.967Z,11.95
2023-05-10T17:39:16.126Z,11.91
2023-05-10T17:44:19.811Z,12.03
2023-05-10T17:49:23.844Z,12.08
2023-05-10T17:54:27.651Z,12.08
2023-05-10T17:59:31.803Z,12.10
2023-05-10T18:04:35.867Z,12.20
2023-05-10T18:09:40.149Z,12.19
2023-05-10T18:14:43.355Z,12.13
2023-05-10T18:19:46.979Z,12.19
2023-05-10T18:24:51.117Z,12.33
2023-05-10T18:29:54.885Z,12.18
2023-05-10T18:34:58.368Z,12.16
2023-05-10T18:40:02.144Z,12.14
2023-05-10T18:45:06.868Z,12.08
2023-05-10T18:50:11.222Z,11.97
2023-05-10T18:55:15.589Z,11.94
2023-05-10T19:00:20.832Z,12.03
2023-05-10T19:05:30.282Z,11.99
2023-05-10T19:10:34.795Z,11.95
2023-05-10T19:15:38.508Z,11.90
2023-05-10T19:20:42.920Z,11.83
2023-05-10T19:25:47.359Z,11.88
2023-05-10T19:30:51.093Z,11.78
2023-05-10T19:35:56.419Z,11.89
2023-05-10T19:41:01.159Z,11.70
2023-05-10T19:46:05.516Z,11.66
2023-05-10T19:51:10.365Z,11.64
2023-05-10T19:56:14.882Z,11.64
2023-05-10T20:01:18.805Z,11.88
2023-05-10T20:06:23.774Z,11.90
2023-05-10T20:11:28.540Z,11.89
2023-05-10T20:16:33.829Z,11.93
2023-05-10T20:21:37.746Z,11.93
2023-05-10T20:26:42.146Z,11.94
2023-05-10T20:31:46.653Z,11.92
2023-05-10T20:36:50.550Z,12.00
2023-05-10T20:41:55.084Z,11.97
2023-05-10T20:46:58.873Z,12.08
2023-05-10T20:52:03.268Z,12.05
2023-05-10T20:57:07.806Z,12.05
2023-05-10T21:02:11.083Z,11.99
2023-05-10T21:07:15.312Z,12.08
2023-05-10T21:12:19.343Z,11.97
2023-05-10T21:17:23.372Z,11.97
2023-05-10T21:22:27.195Z,11.89
2023-05-10T21:27:31.286Z,11.80
2023-05-10T21:32:34.448Z,11.65
2023-05-10T21:37:38.655Z,11.51
2023-05-10T21:42:42.387Z,11.33
2023-05-10T21:47:46.500Z,11.17
2023-05-10T21:52:50.839Z,10.81
2023-05-10T21:57:54.756Z,10.50
2023-05-10T22:02:58.106Z,10.31
2023-05-10T22:08:01.973Z,10.14
2023-05-10T22:13:05.734Z,10.00
2023-05-10T22:18:09.254Z,9.68
2023-05-10T22:23:13.485Z,9.41
2023-05-10T22:28:17.012Z,9.22
2023-05-10T22:33:24.249Z,9.07
2023-05-10T22:38:27.748Z,8.95
2023-05-10T22:43:30.902Z,8.97
2023-05-10T22:48:36.015Z,8.87
2023-05-10T22:53:39.934Z,8.71
2023-05-10T22:58:43.564Z,8.46
2023-05-10T23:03:46.810Z,8.42
2023-05-10T23:08:50.914Z,8.28
2023-05-10T23:14:03.448Z,8.32
2023-05-10T23:19:08.185Z,8.23
2023-05-10T23:24:12.169Z,8.22
2023-05-10T23:29:15.337Z,8.20
2023-05-10T23:34:19.046Z,8.08
2023-05-10T23:39:48.385Z,8.04
2023-05-10T23:44:52.701Z,7.96
2023-05-10T23:49:56.758Z,7.92
2023-05-10T23:55:00.290Z,7.90
